sensor_id;sensor_type;location;lat;lon;timestamp;P1;durP1;ratioP1;P2;durP2;ratioP2
28431;SDS011;15664;51.302;7.744;2023-01-26T00:00:58;55.47;;;11.70;;
28431;SDS011;15664;51.302;7.744;2023-01-26T00:03:24;43.65;;;10.90;;
28431;SDS011;15664;51.302;7.744;2023-01-26T00:05:50;53.00;;;12.93;;
28431;SDS011;15664;51.302;7.744;2023-01-26T00:08:15;43.33;;;10.05;;
28431;SDS011;15664;51.302;7.744;2023-01-26T00:10:40;48.00;;;10.68;;
28431;SDS011;15664;51.302;7.744;2023-01-26T00:13:14;51.85;;;10.63;;
28431;SDS011;15664;51.302;7.744;2023-01-26T00:15:40;56.08;;;12.85;;
28431;SDS011;15664;51.302;7.744;2023-01-26T00:18:06;48.40;;;10.73;;
28431;SDS011;15664;51.302;7.744;2023-01-26T00:20:33;43.92;;;10.82;;
28431;SDS011;15664;51.302;7.744;2023-01-26T00:22:58;51.47;;;10.97;;
28431;SDS011;15664;51.302;7.744;2023-01-26T00:25:24;52.00;;;12.57;;
28431;SDS011;15664;51.302;7.744;2023-01-26T00:27:49;41.57;;;9.07;;
28431;SDS011;15664;51.302;7.744;2023-01-26T00:30:14;30.07;;;7.97;;
28431;SDS011;15664;51.302;7.744;2023-01-26T00:32:40;47.77;;;10.27;;
28431;SDS011;15664;51.302;7.744;2023-01-26T00:35:05;54.50;;;11.73;;
28431;SDS011;15664;51.302;7.744;2023-01-26T00:37:31;30.48;;;7.07;;
28431;SDS011;15664;51.302;7.744;2023-01-26T00:39:57;60.33;;;11.10;;
28431;SDS011;15664;51.302;7.744;2023-01-26T00:42:22;48.25;;;10.43;;
28431;SDS011;15664;51.302;7.744;2023-01-26T00:44:48;54.97;;;11.40;;
28431;SDS011;15664;51.302;7.744;2023-01-26T00:47:14;45.95;;;9.05;;
28431;SDS011;15664;51.302;7.744;2023-01-26T00:49:40;49.40;;;11.10;;
28431;SDS011;15664;51.302;7.744;2023-01-26T00:52:05;60.92;;;13.02;;
28431;SDS011;15664;51.302;7.744;2023-01-26T00:54:31;48.77;;;11.73;;
28431;SDS011;15664;51.302;7.744;2023-01-26T00:56:56;52.20;;;12.77;;
28431;SDS011;15664;51.302;7.744;2023-01-26T00:59:22;42.60;;;11.03;;
28431;SDS011;15664;51.302;7.744;2023-01-26T01:01:47;41.60;;;8.30;;
28431;SDS011;15664;51.302;7.744;2023-01-26T01:04:13;51.70;;;10.40;;
28431;SDS011;15664;51.302;7.744;2023-01-26T01:06:39;38.38;;;10.05;;
28431;SDS011;15664;51.302;7.744;2023-01-26T01:09:04;46.23;;;10.17;;
28431;SDS011;15664;51.302;7.744;2023-01-26T01:11:30;44.33;;;11.13;;
28431;SDS011;15664;51.302;7.744;2023-01-26T01:13:55;37.23;;;8.67;;
28431;SDS011;15664;51.302;7.744;2023-01-26T01:16:20;31.60;;;8.67;;
28431;SDS011;15664;51.302;7.744;2023-01-26T01:18:46;50.37;;;10.00;;
28431;SDS011;15664;51.302;7.744;2023-01-26T01:21:12;45.33;;;9.63;;
28431;SDS011;15664;51.302;7.744;2023-01-26T01:23:39;44.13;;;10.43;;
28431;SDS011;15664;51.302;7.744;2023-01-26T01:26:05;42.30;;;8.80;;
28431;SDS011;15664;51.302;7.744;2023-01-26T01:28:32;43.72;;;9.77;;
28431;SDS011;15664;51.302;7.744;2023-01-26T01:30:58;37.27;;;10.10;;
28431;SDS011;15664;51.302;7.744;2023-01-26T01:33:23;31.38;;;9.25;;
28431;SDS011;15664;51.302;7.744;2023-01-26T01:35:59;42.70;;;10.37;;
28431;SDS011;15664;51.302;7.744;2023-01-26T01:38:28;55.83;;;11.05;;
28431;SDS011;15664;51.302;7.744;2023-01-26T01:40:54;40.10;;;10.40;;
28431;SDS011;15664;51.302;7.744;2023-01-26T01:43:20;39.30;;;8.10;;
28431;SDS011;15664;51.302;7.744;2023-01-26T01:45:46;47.47;;;10.53;;
28431;SDS011;15664;51.302;7.744;2023-01-26T01:51:12;47.67;;;11.88;;
28431;SDS011;15664;51.302;7.744;2023-01-26T01:53:42;46.42;;;9.65;;
28431;SDS011;15664;51.302;7.744;2023-01-26T01:56:12;35.45;;;8.90;;
28431;SDS011;15664;51.302;7.744;2023-01-26T01:58:46;59.45;;;12.32;;
28431;SDS011;15664;51.302;7.744;2023-01-26T02:01:13;42.00;;;11.02;;
28431;SDS011;15664;51.302;7.744;2023-01-26T02:03:39;54.87;;;12.37;;
28431;SDS011;15664;51.302;7.744;2023-01-26T02:06:11;48.10;;;11.27;;
28431;SDS011;15664;51.302;7.744;2023-01-26T02:08:43;44.47;;;11.43;;
28431;SDS011;15664;51.302;7.744;2023-01-26T02:11:16;53.85;;;11.70;;
28431;SDS011;15664;51.302;7.744;2023-01-26T02:13:45;48.60;;;10.93;;
28431;SDS011;15664;51.302;7.744;2023-01-26T02:16:13;55.53;;;11.23;;
28431;SDS011;15664;51.302;7.744;2023-01-26T02:18:39;57.72;;;11.15;;
28431;SDS011;15664;51.302;7.744;2023-01-26T02:21:05;57.13;;;11.47;;
28431;SDS011;15664;51.302;7.744;2023-01-26T02:26:27;39.88;;;9.48;;
28431;SDS011;15664;51.302;7.744;2023-01-26T02:28:55;44.93;;;9.77;;
28431;SDS011;15664;51.302;7.744;2023-01-26T02:31:21;40.80;;;9.65;;
28431;SDS011;15664;51.302;7.744;2023-01-26T02:33:48;48.92;;;10.63;;
28431;SDS011;15664;51.302;7.744;2023-01-26T02:36:18;47.90;;;10.10;;
28431;SDS011;15664;51.302;7.744;2023-01-26T02:41:49;47.47;;;11.63;;
28431;SDS011;15664;51.302;7.744;2023-01-26T02:44:35;47.33;;;11.50;;
28431;SDS011;15664;51.302;7.744;2023-01-26T02:47:09;46.97;;;11.20;;
28431;SDS011;15664;51.302;7.744;2023-01-26T02:49:35;52.88;;;10.98;;
28431;SDS011;15664;51.302;7.744;2023-01-26T02:52:18;52.57;;;11.47;;
28431;SDS011;15664;51.302;7.744;2023-01-26T02:54:52;46.40;;;10.68;;
28431;SDS011;15664;51.302;7.744;2023-01-26T02:57:36;51.78;;;11.07;;
28431;SDS011;15664;51.302;7.744;2023-01-26T03:00:05;39.65;;;10.73;;
28431;SDS011;15664;51.302;7.744;2023-01-26T03:02:32;44.97;;;10.47;;
28431;SDS011;15664;51.302;7.744;2023-01-26T03:04:57;50.17;;;12.00;;
28431;SDS011;15664;51.302;7.744;2023-01-26T03:07:23;50.60;;;11.77;;
28431;SDS011;15664;51.302;7.744;2023-01-26T03:09:49;49.92;;;12.50;;
28431;SDS011;15664;51.302;7.744;2023-01-26T03:12:15;54.23;;;11.53;;
28431;SDS011;15664;51.302;7.744;2023-01-26T03:14:40;47.20;;;11.20;;
28431;SDS011;15664;51.302;7.744;2023-01-26T03:17:05;53.10;;;11.10;;
28431;SDS011;15664;51.302;7.744;2023-01-26T03:19:31;43.13;;;10.97;;
28431;SDS011;15664;51.302;7.744;2023-01-26T03:22:15;40.97;;;9.60;;
28431;SDS011;15664;51.302;7.744;2023-01-26T03:24:59;43.25;;;11.18;;
28431;SDS011;15664;51.302;7.744;2023-01-26T03:27:44;50.15;;;10.95;;
28431;SDS011;15664;51.302;7.744;2023-01-26T03:30:13;44.95;;;10.65;;
28431;SDS011;15664;51.302;7.744;2023-01-26T03:32:43;46.47;;;10.27;;
28431;SDS011;15664;51.302;7.744;2023-01-26T03:35:12;45.57;;;10.90;;
28431;SDS011;15664;51.302;7.744;2023-01-26T03:37:43;47.53;;;11.65;;
28431;SDS011;15664;51.302;7.744;2023-01-26T03:40:14;46.50;;;10.98;;
28431;SDS011;15664;51.302;7.744;2023-01-26T03:42:58;39.85;;;11.05;;
28431;SDS011;15664;51.302;7.744;2023-01-26T03:45:50;41.40;;;11.20;;
28431;SDS011;15664;51.302;7.744;2023-01-26T03:48:34;43.90;;;9.33;;
28431;SDS011;15664;51.302;7.744;2023-01-26T03:51:18;45.58;;;11.02;;
28431;SDS011;15664;51.302;7.744;2023-01-26T03:54:02;44.55;;;11.07;;
28431;SDS011;15664;51.302;7.744;2023-01-26T03:56:47;33.72;;;8.85;;
28431;SDS011;15664;51.302;7.744;2023-01-26T03:59:13;42.08;;;9.50;;
28431;SDS011;15664;51.302;7.744;2023-01-26T04:01:42;38.83;;;8.93;;
28431;SDS011;15664;51.302;7.744;2023-01-26T04:04:29;43.35;;;10.57;;
28431;SDS011;15664;51.302;7.744;2023-01-26T04:07:14;34.38;;;8.25;;
28431;SDS011;15664;51.302;7.744;2023-01-26T04:09:58;39.70;;;8.15;;
28431;SDS011;15664;51.302;7.744;2023-01-26T04:12:23;37.03;;;9.07;;
28431;SDS011;15664;51.302;7.744;2023-01-26T04:15:01;37.65;;;8.55;;
28431;SDS011;15664;51.302;7.744;2023-01-26T04:17:45;37.28;;;9.00;;
28431;SDS011;15664;51.302;7.744;2023-01-26T04:20:30;41.95;;;9.10;;
28431;SDS011;15664;51.302;7.744;2023-01-26T04:23:17;43.72;;;9.35;;
28431;SDS011;15664;51.302;7.744;2023-01-26T04:25:43;37.97;;;9.20;;
28431;SDS011;15664;51.302;7.744;2023-01-26T04:28:09;42.42;;;9.48;;
28431;SDS011;15664;51.302;7.744;2023-01-26T04:30:35;34.00;;;8.60;;
28431;SDS011;15664;51.302;7.744;2023-01-26T04:33:00;44.93;;;10.60;;
28431;SDS011;15664;51.302;7.744;2023-01-26T04:35:26;40.70;;;10.83;;
28431;SDS011;15664;51.302;7.744;2023-01-26T04:37:52;45.92;;;10.02;;
28431;SDS011;15664;51.302;7.744;2023-01-26T04:40:17;44.20;;;9.47;;
28431;SDS011;15664;51.302;7.744;2023-01-26T04:42:42;42.93;;;10.00;;
28431;SDS011;15664;51.302;7.744;2023-01-26T04:45:09;41.27;;;9.30;;
28431;SDS011;15664;51.302;7.744;2023-01-26T04:47:35;50.13;;;11.30;;
28431;SDS011;15664;51.302;7.744;2023-01-26T04:50:02;55.92;;;11.50;;
28431;SDS011;15664;51.302;7.744;2023-01-26T04:52:27;45.45;;;10.20;;
28431;SDS011;15664;51.302;7.744;2023-01-26T04:54:53;50.23;;;11.07;;
28431;SDS011;15664;51.302;7.744;2023-01-26T04:57:18;43.90;;;11.47;;
28431;SDS011;15664;51.302;7.744;2023-01-26T04:59:49;45.95;;;10.80;;
28431;SDS011;15664;51.302;7.744;2023-01-26T05:02:14;46.10;;;11.05;;
28431;SDS011;15664;51.302;7.744;2023-01-26T05:04:40;38.05;;;9.98;;
28431;SDS011;15664;51.302;7.744;2023-01-26T05:07:06;35.07;;;8.33;;
28431;SDS011;15664;51.302;7.744;2023-01-26T05:09:32;33.80;;;8.63;;
28431;SDS011;15664;51.302;7.744;2023-01-26T05:12:23;38.20;;;8.57;;
28431;SDS011;15664;51.302;7.744;2023-01-26T05:15:16;24.35;;;7.28;;
28431;SDS011;15664;51.302;7.744;2023-01-26T05:17:53;22.90;;;6.05;;
28431;SDS011;15664;51.302;7.744;2023-01-26T05:20:33;24.20;;;6.28;;
28431;SDS011;15664;51.302;7.744;2023-01-26T05:23:23;27.20;;;6.65;;
28431;SDS011;15664;51.302;7.744;2023-01-26T05:26:07;32.28;;;8.50;;
28431;SDS011;15664;51.302;7.744;2023-01-26T05:28:45;35.35;;;7.68;;
28431;SDS011;15664;51.302;7.744;2023-01-26T05:31:10;31.97;;;6.73;;
28431;SDS011;15664;51.302;7.744;2023-01-26T05:33:35;25.00;;;6.37;;
28431;SDS011;15664;51.302;7.744;2023-01-26T05:36:03;33.58;;;7.47;;
28431;SDS011;15664;51.302;7.744;2023-01-26T05:38:30;29.58;;;6.47;;
28431;SDS011;15664;51.302;7.744;2023-01-26T05:40:56;29.90;;;6.43;;
28431;SDS011;15664;51.302;7.744;2023-01-26T05:43:22;18.23;;;5.85;;
28431;SDS011;15664;51.302;7.744;2023-01-26T05:46:07;21.70;;;6.20;;
28431;SDS011;15664;51.302;7.744;2023-01-26T05:48:32;21.87;;;6.17;;
28431;SDS011;15664;51.302;7.744;2023-01-26T05:50:57;31.08;;;6.15;;
28431;SDS011;15664;51.302;7.744;2023-01-26T05:53:24;24.57;;;5.77;;
28431;SDS011;15664;51.302;7.744;2023-01-26T05:55:49;17.35;;;4.90;;
28431;SDS011;15664;51.302;7.744;2023-01-26T05:58:19;16.92;;;5.60;;
28431;SDS011;15664;51.302;7.744;2023-01-26T06:00:44;26.53;;;5.97;;
28431;SDS011;15664;51.302;7.744;2023-01-26T06:03:17;21.63;;;6.00;;
28431;SDS011;15664;51.302;7.744;2023-01-26T06:05:43;29.60;;;6.13;;
28431;SDS011;15664;51.302;7.744;2023-01-26T06:08:19;17.48;;;4.40;;
28431;SDS011;15664;51.302;7.744;2023-01-26T06:10:57;24.85;;;6.40;;
28431;SDS011;15664;51.302;7.744;2023-01-26T06:13:36;11.93;;;4.00;;
28431;SDS011;15664;51.302;7.744;2023-01-26T06:16:14;22.60;;;4.95;;
28431;SDS011;15664;51.302;7.744;2023-01-26T06:18:39;13.93;;;4.37;;
28431;SDS011;15664;51.302;7.744;2023-01-26T06:21:05;16.63;;;5.07;;
28431;SDS011;15664;51.302;7.744;2023-01-26T06:23:30;12.50;;;4.65;;
28431;SDS011;15664;51.302;7.744;2023-01-26T06:26:00;21.50;;;4.90;;
28431;SDS011;15664;51.302;7.744;2023-01-26T06:28:29;15.80;;;5.07;;
28431;SDS011;15664;51.302;7.744;2023-01-26T06:31:02;22.92;;;5.80;;
28431;SDS011;15664;51.302;7.744;2023-01-26T06:33:31;24.38;;;6.13;;
28431;SDS011;15664;51.302;7.744;2023-01-26T06:36:04;23.20;;;5.93;;
28431;SDS011;15664;51.302;7.744;2023-01-26T06:38:33;9.30;;;3.17;;
28431;SDS011;15664;51.302;7.744;2023-01-26T06:41:02;22.97;;;5.60;;
28431;SDS011;15664;51.302;7.744;2023-01-26T06:43:30;25.05;;;6.20;;
28431;SDS011;15664;51.302;7.744;2023-01-26T06:45:56;18.42;;;5.32;;
28431;SDS011;15664;51.302;7.744;2023-01-26T06:48:26;24.52;;;5.28;;
28431;SDS011;15664;51.302;7.744;2023-01-26T06:50:58;22.55;;;6.18;;
28431;SDS011;15664;51.302;7.744;2023-01-26T06:53:32;23.63;;;6.78;;
28431;SDS011;15664;51.302;7.744;2023-01-26T06:56:15;15.27;;;3.80;;
28431;SDS011;15664;51.302;7.744;2023-01-26T06:59:14;10.50;;;4.07;;
28431;SDS011;15664;51.302;7.744;2023-01-26T07:01:59;16.73;;;4.63;;
28431;SDS011;15664;51.302;7.744;2023-01-26T07:04:25;13.10;;;4.00;;
28431;SDS011;15664;51.302;7.744;2023-01-26T07:06:51;23.23;;;4.75;;
28431;SDS011;15664;51.302;7.744;2023-01-26T07:09:16;16.60;;;4.43;;
28431;SDS011;15664;51.302;7.744;2023-01-26T07:11:42;19.40;;;4.40;;
28431;SDS011;15664;51.302;7.744;2023-01-26T07:14:07;10.30;;;3.47;;
28431;SDS011;15664;51.302;7.744;2023-01-26T07:16:32;17.20;;;4.57;;
28431;SDS011;15664;51.302;7.744;2023-01-26T07:18:57;13.90;;;4.97;;
28431;SDS011;15664;51.302;7.744;2023-01-26T07:21:23;15.50;;;3.40;;
28431;SDS011;15664;51.302;7.744;2023-01-26T07:23:48;9.53;;;4.37;;
28431;SDS011;15664;51.302;7.744;2023-01-26T07:26:15;11.75;;;3.25;;
28431;SDS011;15664;51.302;7.744;2023-01-26T07:28:41;18.08;;;5.15;;
28431;SDS011;15664;51.302;7.744;2023-01-26T07:31:07;21.67;;;5.23;;
28431;SDS011;15664;51.302;7.744;2023-01-26T07:33:32;12.23;;;4.07;;
28431;SDS011;15664;51.302;7.744;2023-01-26T07:35:59;13.60;;;4.35;;
28431;SDS011;15664;51.302;7.744;2023-01-26T07:38:24;23.37;;;5.67;;
28431;SDS011;15664;51.302;7.744;2023-01-26T07:40:51;23.58;;;6.10;;
28431;SDS011;15664;51.302;7.744;2023-01-26T07:43:16;29.80;;;5.93;;
28431;SDS011;15664;51.302;7.744;2023-01-26T07:45:45;22.27;;;5.38;;
28431;SDS011;15664;51.302;7.744;2023-01-26T07:48:15;24.02;;;6.03;;
28431;SDS011;15664;51.302;7.744;2023-01-26T07:50:41;19.05;;;5.88;;
28431;SDS011;15664;51.302;7.744;2023-01-26T07:53:06;25.20;;;5.90;;
28431;SDS011;15664;51.302;7.744;2023-01-26T07:55:33;23.20;;;6.18;;
28431;SDS011;15664;51.302;7.744;2023-01-26T07:57:59;24.88;;;5.80;;
28431;SDS011;15664;51.302;7.744;2023-01-26T08:00:24;15.00;;;3.77;;
28431;SDS011;15664;51.302;7.744;2023-01-26T08:02:50;25.17;;;5.33;;
28431;SDS011;15664;51.302;7.744;2023-01-26T08:05:15;16.37;;;4.53;;
28431;SDS011;15664;51.302;7.744;2023-01-26T08:07:40;16.80;;;4.93;;
28431;SDS011;15664;51.302;7.744;2023-01-26T08:10:06;27.20;;;6.80;;
28431;SDS011;15664;51.302;7.744;2023-01-26T08:12:33;23.70;;;6.27;;
28431;SDS011;15664;51.302;7.744;2023-01-26T08:14:59;24.23;;;5.32;;
28431;SDS011;15664;51.302;7.744;2023-01-26T08:17:24;22.43;;;6.00;;
28431;SDS011;15664;51.302;7.744;2023-01-26T08:19:49;20.13;;;5.40;;
28431;SDS011;15664;51.302;7.744;2023-01-26T08:22:15;21.63;;;5.80;;
28431;SDS011;15664;51.302;7.744;2023-01-26T08:24:40;23.93;;;6.03;;
28431;SDS011;15664;51.302;7.744;2023-01-26T08:27:05;25.93;;;7.23;;
28431;SDS011;15664;51.302;7.744;2023-01-26T08:29:30;25.20;;;6.70;;
28431;SDS011;15664;51.302;7.744;2023-01-26T08:31:56;36.97;;;10.43;;
28431;SDS011;15664;51.302;7.744;2023-01-26T08:34:21;29.90;;;9.90;;
28431;SDS011;15664;51.302;7.744;2023-01-26T08:36:46;30.80;;;9.03;;
28431;SDS011;15664;51.302;7.744;2023-01-26T08:39:12;35.42;;;11.27;;
28431;SDS011;15664;51.302;7.744;2023-01-26T08:41:37;25.27;;;9.33;;
28431;SDS011;15664;51.302;7.744;2023-01-26T08:44:04;23.23;;;7.20;;
28431;SDS011;15664;51.302;7.744;2023-01-26T08:46:29;22.90;;;5.97;;
28431;SDS011;15664;51.302;7.744;2023-01-26T08:48:55;25.47;;;6.40;;
28431;SDS011;15664;51.302;7.744;2023-01-26T08:51:20;26.93;;;7.70;;
28431;SDS011;15664;51.302;7.744;2023-01-26T08:53:45;26.38;;;8.32;;
28431;SDS011;15664;51.302;7.744;2023-01-26T08:56:11;30.33;;;7.20;;
28431;SDS011;15664;51.302;7.744;2023-01-26T08:58:37;33.90;;;9.13;;
28431;SDS011;15664;51.302;7.744;2023-01-26T09:01:03;24.42;;;7.35;;
28431;SDS011;15664;51.302;7.744;2023-01-26T09:03:30;32.30;;;9.85;;
28431;SDS011;15664;51.302;7.744;2023-01-26T09:05:57;32.27;;;8.03;;
28431;SDS011;15664;51.302;7.744;2023-01-26T09:08:27;26.95;;;8.48;;
28431;SDS011;15664;51.302;7.744;2023-01-26T09:10:52;25.57;;;7.50;;
28431;SDS011;15664;51.302;7.744;2023-01-26T09:13:18;19.43;;;5.40;;
28431;SDS011;15664;51.302;7.744;2023-01-26T09:15:43;33.00;;;7.47;;
28431;SDS011;15664;51.302;7.744;2023-01-26T09:18:09;31.42;;;8.27;;
28431;SDS011;15664;51.302;7.744;2023-01-26T09:20:36;13.47;;;3.87;;
28431;SDS011;15664;51.302;7.744;2023-01-26T09:23:02;28.67;;;7.07;;
28431;SDS011;15664;51.302;7.744;2023-01-26T09:25:27;23.47;;;6.13;;
28431;SDS011;15664;51.302;7.744;2023-01-26T09:27:52;21.43;;;7.13;;
28431;SDS011;15664;51.302;7.744;2023-01-26T09:30:17;27.73;;;7.93;;
28431;SDS011;15664;51.302;7.744;2023-01-26T09:32:43;16.07;;;6.10;;
28431;SDS011;15664;51.302;7.744;2023-01-26T09:35:08;22.63;;;5.87;;
28431;SDS011;15664;51.302;7.744;2023-01-26T09:37:35;15.82;;;5.55;;
28431;SDS011;15664;51.302;7.744;2023-01-26T09:40:02;19.98;;;5.55;;
28431;SDS011;15664;51.302;7.744;2023-01-26T09:42:36;15.70;;;5.33;;
28431;SDS011;15664;51.302;7.744;2023-01-26T09:51:02;8.75;;;3.05;;
28431;SDS011;15664;51.302;7.744;2023-01-26T09:53:38;3.83;;;1.92;;
28431;SDS011;15664;51.302;7.744;2023-01-26T09:56:13;6.90;;;4.07;;
28431;SDS011;15664;51.302;7.744;2023-01-26T09:58:41;10.25;;;3.08;;
28431;SDS011;15664;51.302;7.744;2023-01-26T10:06:37;12.33;;;3.80;;
28431;SDS011;15664;51.302;7.744;2023-01-26T10:09:15;17.63;;;5.50;;
28431;SDS011;15664;51.302;7.744;2023-01-26T10:11:47;16.95;;;5.55;;
28431;SDS011;15664;51.302;7.744;2023-01-26T10:14:28;13.88;;;4.25;;
28431;SDS011;15664;51.302;7.744;2023-01-26T10:16:58;8.48;;;3.75;;
28431;SDS011;15664;51.302;7.744;2023-01-26T10:22:14;7.00;;;2.75;;
28431;SDS011;15664;51.302;7.744;2023-01-26T10:24:45;11.30;;;3.92;;
28431;SDS011;15664;51.302;7.744;2023-01-26T10:27:13;19.50;;;5.65;;
28431;SDS011;15664;51.302;7.744;2023-01-26T10:29:38;9.83;;;3.67;;
28431;SDS011;15664;51.302;7.744;2023-01-26T10:32:04;21.33;;;6.37;;
28431;SDS011;15664;51.302;7.744;2023-01-26T10:34:29;24.03;;;6.03;;
28431;SDS011;15664;51.302;7.744;2023-01-26T10:37:11;19.15;;;5.72;;
28431;SDS011;15664;51.302;7.744;2023-01-26T10:40:00;15.32;;;4.95;;
28431;SDS011;15664;51.302;7.744;2023-01-26T10:42:29;30.70;;;7.17;;
28431;SDS011;15664;51.302;7.744;2023-01-26T10:44:57;19.67;;;6.38;;
28431;SDS011;15664;51.302;7.744;2023-01-26T10:47:23;18.63;;;5.72;;
28431;SDS011;15664;51.302;7.744;2023-01-26T10:49:49;22.55;;;6.00;;
28431;SDS011;15664;51.302;7.744;2023-01-26T10:54:45;18.52;;;5.60;;
28431;SDS011;15664;51.302;7.744;2023-01-26T10:57:27;23.52;;;7.55;;
28431;SDS011;15664;51.302;7.744;2023-01-26T10:59:57;18.63;;;5.47;;
28431;SDS011;15664;51.302;7.744;2023-01-26T11:02:25;5.90;;;2.90;;
28431;SDS011;15664;51.302;7.744;2023-01-26T11:12:42;28.13;;;7.93;;
28431;SDS011;15664;51.302;7.744;2023-01-26T11:15:23;32.97;;;8.82;;
28431;SDS011;15664;51.302;7.744;2023-01-26T11:21:05;7.70;;;2.90;;
28431;SDS011;15664;51.302;7.744;2023-01-26T11:26:47;15.10;;;4.30;;
28431;SDS011;15664;51.302;7.744;2023-01-26T11:29:37;11.30;;;3.27;;
28431;SDS011;15664;51.302;7.744;2023-01-26T11:32:19;23.05;;;6.90;;
28431;SDS011;15664;51.302;7.744;2023-01-26T11:37:59;17.83;;;5.10;;
28431;SDS011;15664;51.302;7.744;2023-01-26T11:43:24;20.00;;;6.20;;
28431;SDS011;15664;51.302;7.744;2023-01-26T11:51:55;18.92;;;5.47;;
28431;SDS011;15664;51.302;7.744;2023-01-26T12:00:13;14.93;;;4.82;;
28431;SDS011;15664;51.302;7.744;2023-01-26T12:02:44;11.75;;;3.58;;
28431;SDS011;15664;51.302;7.744;2023-01-26T12:05:22;7.20;;;3.03;;
28431;SDS011;15664;51.302;7.744;2023-01-26T12:07:53;20.33;;;5.67;;
28431;SDS011;15664;51.302;7.744;2023-01-26T12:10:23;7.20;;;3.15;;
28431;SDS011;15664;51.302;7.744;2023-01-26T12:13:04;6.38;;;2.72;;
28431;SDS011;15664;51.302;7.744;2023-01-26T12:15:38;16.20;;;4.57;;
28431;SDS011;15664;51.302;7.744;2023-01-26T12:18:16;12.40;;;3.70;;
28431;SDS011;15664;51.302;7.744;2023-01-26T12:20:52;10.68;;;3.70;;
28431;SDS011;15664;51.302;7.744;2023-01-26T12:25:52;14.52;;;3.90;;
28431;SDS011;15664;51.302;7.744;2023-01-26T12:33:37;20.35;;;6.00;;
28431;SDS011;15664;51.302;7.744;2023-01-26T12:39:11;14.98;;;4.53;;
28431;SDS011;15664;51.302;7.744;2023-01-26T12:47:06;5.95;;;2.45;;
28431;SDS011;15664;51.302;7.744;2023-01-26T12:52:33;16.97;;;5.03;;
28431;SDS011;15664;51.302;7.744;2023-01-26T12:55:08;6.03;;;2.50;;
28431;SDS011;15664;51.302;7.744;2023-01-26T12:57:37;17.95;;;4.93;;
28431;SDS011;15664;51.302;7.744;2023-01-26T13:00:21;23.55;;;5.82;;
28431;SDS011;15664;51.302;7.744;2023-01-26T13:02:51;17.57;;;5.00;;
28431;SDS011;15664;51.302;7.744;2023-01-26T13:05:25;7.85;;;2.60;;
28431;SDS011;15664;51.302;7.744;2023-01-26T13:07:56;12.73;;;4.57;;
28431;SDS011;15664;51.302;7.744;2023-01-26T13:10:25;15.83;;;4.63;;
28431;SDS011;15664;51.302;7.744;2023-01-26T13:12:54;8.88;;;3.53;;
28431;SDS011;15664;51.302;7.744;2023-01-26T13:15:22;14.07;;;4.40;;
28431;SDS011;15664;51.302;7.744;2023-01-26T13:28:40;8.70;;;3.13;;
28431;SDS011;15664;51.302;7.744;2023-01-26T13:31:06;8.40;;;3.05;;
28431;SDS011;15664;51.302;7.744;2023-01-26T13:33:33;8.27;;;3.40;;
28431;SDS011;15664;51.302;7.744;2023-01-26T13:36:01;13.52;;;3.95;;
28431;SDS011;15664;51.302;7.744;2023-01-26T13:38:37;12.00;;;4.10;;
28431;SDS011;15664;51.302;7.744;2023-01-26T13:41:12;10.55;;;3.95;;
28431;SDS011;15664;51.302;7.744;2023-01-26T13:43:42;14.93;;;4.43;;
28431;SDS011;15664;51.302;7.744;2023-01-26T13:46:21;8.48;;;2.90;;
28431;SDS011;15664;51.302;7.744;2023-01-26T13:48:54;13.10;;;3.90;;
28431;SDS011;15664;51.302;7.744;2023-01-26T13:51:27;9.85;;;3.40;;
28431;SDS011;15664;51.302;7.744;2023-01-26T13:56:36;10.00;;;3.97;;
28431;SDS011;15664;51.302;7.744;2023-01-26T13:59:10;12.93;;;4.40;;
28431;SDS011;15664;51.302;7.744;2023-01-26T14:04:14;14.60;;;4.63;;
28431;SDS011;15664;51.302;7.744;2023-01-26T14:06:48;11.23;;;4.43;;
28431;SDS011;15664;51.302;7.744;2023-01-26T14:09:20;12.05;;;4.13;;
28431;SDS011;15664;51.302;7.744;2023-01-26T14:11:50;8.27;;;2.90;;
28431;SDS011;15664;51.302;7.744;2023-01-26T14:14:23;11.20;;;3.78;;
28431;SDS011;15664;51.302;7.744;2023-01-26T14:16:50;10.15;;;3.85;;
28431;SDS011;15664;51.302;7.744;2023-01-26T14:19:17;12.10;;;3.70;;
28431;SDS011;15664;51.302;7.744;2023-01-26T14:22:02;12.18;;;3.75;;
28431;SDS011;15664;51.302;7.744;2023-01-26T14:24:32;9.60;;;3.23;;
28431;SDS011;15664;51.302;7.744;2023-01-26T14:26:59;5.95;;;2.17;;
28431;SDS011;15664;51.302;7.744;2023-01-26T14:29:26;10.63;;;3.67;;
28431;SDS011;15664;51.302;7.744;2023-01-26T14:31:54;13.73;;;4.55;;
28431;SDS011;15664;51.302;7.744;2023-01-26T14:34:26;11.13;;;3.80;;
28431;SDS011;15664;51.302;7.744;2023-01-26T14:37:06;9.52;;;3.50;;
28431;SDS011;15664;51.302;7.744;2023-01-26T14:39:37;10.32;;;3.88;;
28431;SDS011;15664;51.302;7.744;2023-01-26T14:42:03;8.77;;;3.63;;
28431;SDS011;15664;51.302;7.744;2023-01-26T14:44:29;10.65;;;3.88;;
28431;SDS011;15664;51.302;7.744;2023-01-26T14:46:57;11.93;;;3.50;;
28431;SDS011;15664;51.302;7.744;2023-01-26T14:49:50;10.00;;;3.00;;
28431;SDS011;15664;51.302;7.744;2023-01-26T14:52:23;10.95;;;3.50;;
28431;SDS011;15664;51.302;7.744;2023-01-26T14:55:13;9.65;;;4.28;;
28431;SDS011;15664;51.302;7.744;2023-01-26T14:57:45;12.02;;;4.97;;
28431;SDS011;15664;51.302;7.744;2023-01-26T15:02:59;9.80;;;3.45;;
28431;SDS011;15664;51.302;7.744;2023-01-26T15:05:36;10.63;;;3.90;;
28431;SDS011;15664;51.302;7.744;2023-01-26T15:08:03;6.43;;;2.60;;
28431;SDS011;15664;51.302;7.744;2023-01-26T15:13:01;7.85;;;3.05;;
28431;SDS011;15664;51.302;7.744;2023-01-26T15:15:32;11.82;;;3.95;;
28431;SDS011;15664;51.302;7.744;2023-01-26T15:18:00;11.30;;;4.07;;
28431;SDS011;15664;51.302;7.744;2023-01-26T15:20:55;10.73;;;3.27;;
28431;SDS011;15664;51.302;7.744;2023-01-26T15:23:25;5.05;;;1.77;;
28431;SDS011;15664;51.302;7.744;2023-01-26T15:25:53;12.70;;;3.78;;
28431;SDS011;15664;51.302;7.744;2023-01-26T15:28:19;10.50;;;3.13;;
28431;SDS011;15664;51.302;7.744;2023-01-26T15:30:50;10.52;;;3.55;;
28431;SDS011;15664;51.302;7.744;2023-01-26T15:36:02;8.95;;;3.00;;
28431;SDS011;15664;51.302;7.744;2023-01-26T15:38:28;7.00;;;2.80;;
28431;SDS011;15664;51.302;7.744;2023-01-26T15:40:53;14.90;;;4.20;;
28431;SDS011;15664;51.302;7.744;2023-01-26T15:43:18;12.07;;;4.17;;
28431;SDS011;15664;51.302;7.744;2023-01-26T15:48:22;12.07;;;4.07;;
28431;SDS011;15664;51.302;7.744;2023-01-26T15:50:49;6.40;;;2.53;;
28431;SDS011;15664;51.302;7.744;2023-01-26T15:53:15;7.65;;;2.90;;
28431;SDS011;15664;51.302;7.744;2023-01-26T15:55:44;9.13;;;3.70;;
28431;SDS011;15664;51.302;7.744;2023-01-26T15:58:10;9.67;;;4.43;;
28431;SDS011;15664;51.302;7.744;2023-01-26T16:00:36;10.80;;;3.92;;
28431;SDS011;15664;51.302;7.744;2023-01-26T16:03:04;10.68;;;3.53;;
28431;SDS011;15664;51.302;7.744;2023-01-26T16:05:36;9.93;;;3.57;;
28431;SDS011;15664;51.302;7.744;2023-01-26T16:08:01;9.40;;;4.00;;
28431;SDS011;15664;51.302;7.744;2023-01-26T16:10:26;9.37;;;3.57;;
28431;SDS011;15664;51.302;7.744;2023-01-26T16:12:51;7.87;;;2.87;;
28431;SDS011;15664;51.302;7.744;2023-01-26T16:15:21;5.03;;;2.20;;
28431;SDS011;15664;51.302;7.744;2023-01-26T16:18:09;10.93;;;3.50;;
28431;SDS011;15664;51.302;7.744;2023-01-26T16:20:35;21.70;;;4.55;;
28431;SDS011;15664;51.302;7.744;2023-01-26T16:23:04;7.95;;;2.75;;
28431;SDS011;15664;51.302;7.744;2023-01-26T16:25:50;8.57;;;2.55;;
28431;SDS011;15664;51.302;7.744;2023-01-26T16:28:17;13.02;;;3.47;;
28431;SDS011;15664;51.302;7.744;2023-01-26T16:30:44;12.00;;;4.33;;
28431;SDS011;15664;51.302;7.744;2023-01-26T16:33:11;12.90;;;4.30;;